sensor_id;sensor_type;location;lat;lon;timestamp;pressure;altitude;pressure_sealevel;temperature
12061;BMP180;6091;51.432;6.880;2023-06-22T00:00:22;101115.00;;;31.50
12061;BMP180;6091;51.432;6.880;2023-06-22T00:02:49;101125.00;;;31.50
12061;BMP180;6091;51.432;6.880;2023-06-22T00:05:16;101122.00;;;31.50
12061;BMP180;6091;51.432;6.880;2023-06-22T00:07:43;101128.00;;;31.40
12061;BMP180;6091;51.432;6.880;2023-06-22T00:10:10;101128.00;;;31.40
12061;BMP180;6091;51.432;6.880;2023-06-22T00:12:37;101134.00;;;31.40
12061;BMP180;6091;51.432;6.880;2023-06-22T00:15:05;101129.00;;;31.40
12061;BMP180;6091;51.432;6.880;2023-06-22T00:17:32;101121.00;;;31.40
12061;BMP180;6091;51.432;6.880;2023-06-22T00:19:59;101131.00;;;31.40
12061;BMP180;6091;51.432;6.880;2023-06-22T00:22:26;101130.00;;;31.40
12061;BMP180;6091;51.432;6.880;2023-06-22T00:24:58;101130.00;;;31.40
12061;BMP180;6091;51.432;6.880;2023-06-22T00:27:24;101123.00;;;31.40
12061;BMP180;6091;51.432;6.880;2023-06-22T00:29:54;101125.00;;;31.40
12061;BMP180;6091;51.432;6.880;2023-06-22T00:32:21;101122.00;;;31.40
12061;BMP180;6091;51.432;6.880;2023-06-22T00:34:48;101123.00;;;31.40
12061;BMP180;6091;51.432;6.880;2023-06-22T00:37:16;101121.00;;;31.40
12061;BMP180;6091;51.432;6.880;2023-06-22T00:39:44;101130.00;;;31.40
12061;BMP180;6091;51.432;6.880;2023-06-22T00:42:11;101122.00;;;31.40
12061;BMP180;6091;51.432;6.880;2023-06-22T00:44:38;101126.00;;;31.40
12061;BMP180;6091;51.432;6.880;2023-06-22T00:47:05;101120.00;;;31.30
12061;BMP180;6091;51.432;6.880;2023-06-22T00:49:33;101116.00;;;31.30
12061;BMP180;6091;51.432;6.880;2023-06-22T00:52:01;101116.00;;;31.30
12061;BMP180;6091;51.432;6.880;2023-06-22T00:54:29;101105.00;;;31.30
12061;BMP180;6091;51.432;6.880;2023-06-22T00:56:57;101100.00;;;31.30
12061;BMP180;6091;51.432;6.880;2023-06-22T00:59:25;101105.00;;;31.30
12061;BMP180;6091;51.432;6.880;2023-06-22T01:01:53;101103.00;;;31.30
12061;BMP180;6091;51.432;6.880;2023-06-22T01:04:26;101106.00;;;31.30
12061;BMP180;6091;51.432;6.880;2023-06-22T01:07:11;101107.00;;;31.30
12061;BMP180;6091;51.432;6.880;2023-06-22T01:10:05;101114.00;;;31.20
12061;BMP180;6091;51.432;6.880;2023-06-22T01:12:43;101105.00;;;31.20
12061;BMP180;6091;51.432;6.880;2023-06-22T01:15:20;101109.00;;;31.20
12061;BMP180;6091;51.432;6.880;2023-06-22T01:17:50;101093.00;;;31.20
12061;BMP180;6091;51.432;6.880;2023-06-22T01:20:21;101107.00;;;31.10
12061;BMP180;6091;51.432;6.880;2023-06-22T01:23:33;101096.00;;;31.10
12061;BMP180;6091;51.432;6.880;2023-06-22T01:26:22;101099.00;;;31.10
12061;BMP180;6091;51.432;6.880;2023-06-22T01:28:57;101081.00;;;31.10
12061;BMP180;6091;51.432;6.880;2023-06-22T01:31:27;101079.00;;;31.00
12061;BMP180;6091;51.432;6.880;2023-06-22T01:34:05;101090.00;;;31.10
12061;BMP180;6091;51.432;6.880;2023-06-22T01:36:34;101080.00;;;31.00
12061;BMP180;6091;51.432;6.880;2023-06-22T01:39:04;101082.00;;;31.10
12061;BMP180;6091;51.432;6.880;2023-06-22T01:41:36;101076.00;;;31.10
12061;BMP180;6091;51.432;6.880;2023-06-22T01:44:08;101076.00;;;31.10
12061;BMP180;6091;51.432;6.880;2023-06-22T01:46:38;101070.00;;;31.10
12061;BMP180;6091;51.432;6.880;2023-06-22T01:49:06;101072.00;;;31.10
12061;BMP180;6091;51.432;6.880;2023-06-22T01:51:33;101070.00;;;31.10
12061;BMP180;6091;51.432;6.880;2023-06-22T01:54:01;101070.00;;;31.00
12061;BMP180;6091;51.432;6.880;2023-06-22T01:56:29;101079.00;;;31.00
12061;BMP180;6091;51.432;6.880;2023-06-22T01:59:17;101077.00;;;31.00
12061;BMP180;6091;51.432;6.880;2023-06-22T02:01:57;101073.00;;;31.00
12061;BMP180;6091;51.432;6.880;2023-06-22T02:07:41;101083.00;;;30.90
12061;BMP180;6091;51.432;6.880;2023-06-22T02:10:15;101081.00;;;30.90
12061;BMP180;6091;51.432;6.880;2023-06-22T02:12:45;101076.00;;;30.90
12061;BMP180;6091;51.432;6.880;2023-06-22T02:15:13;101084.00;;;30.90
12061;BMP180;6091;51.432;6.880;2023-06-22T02:17:42;101078.00;;;30.90
12061;BMP180;6091;51.432;6.880;2023-06-22T02:20:13;101076.00;;;30.90
12061;BMP180;6091;51.432;6.880;2023-06-22T02:22:41;101078.00;;;30.90
12061;BMP180;6091;51.432;6.880;2023-06-22T02:25:08;101072.00;;;30.90
12061;BMP180;6091;51.432;6.880;2023-06-22T02:27:35;101073.00;;;30.90
12061;BMP180;6091;51.432;6.880;2023-06-22T02:30:03;101068.00;;;30.90
12061;BMP180;6091;51.432;6.880;2023-06-22T02:32:30;101063.00;;;30.90
12061;BMP180;6091;51.432;6.880;2023-06-22T02:34:57;101067.00;;;30.90
12061;BMP180;6091;51.432;6.880;2023-06-22T02:37:24;101063.00;;;30.80
12061;BMP180;6091;51.432;6.880;2023-06-22T02:39:52;101064.00;;;30.90
12061;BMP180;6091;51.432;6.880;2023-06-22T02:42:19;101059.00;;;30.80
12061;BMP180;6091;51.432;6.880;2023-06-22T02:44:48;101057.00;;;30.80
12061;BMP180;6091;51.432;6.880;2023-06-22T02:47:15;101059.00;;;30.90
12061;BMP180;6091;51.432;6.880;2023-06-22T02:49:43;101061.00;;;30.80
12061;BMP180;6091;51.432;6.880;2023-06-22T02:52:12;101061.00;;;30.80
12061;BMP180;6091;51.432;6.880;2023-06-22T02:54:40;101058.00;;;30.80
12061;BMP180;6091;51.432;6.880;2023-06-22T02:57:07;101052.00;;;30.80
12061;BMP180;6091;51.432;6.880;2023-06-22T02:59:41;101056.00;;;30.80
12061;BMP180;6091;51.432;6.880;2023-06-22T03:02:09;101056.00;;;30.80
12061;BMP180;6091;51.432;6.880;2023-06-22T03:04:36;101043.00;;;30.70
12061;BMP180;6091;51.432;6.880;2023-06-22T03:07:03;101045.00;;;30.70
12061;BMP180;6091;51.432;6.880;2023-06-22T03:09:32;101043.00;;;30.70
12061;BMP180;6091;51.432;6.880;2023-06-22T03:11:59;101033.00;;;30.70
12061;BMP180;6091;51.432;6.880;2023-06-22T03:14:26;101027.00;;;30.70
12061;BMP180;6091;51.432;6.880;2023-06-22T03:16:53;101028.00;;;30.70
12061;BMP180;6091;51.432;6.880;2023-06-22T03:19:20;101026.00;;;30.70
12061;BMP180;6091;51.432;6.880;2023-06-22T03:21:48;101029.00;;;30.70
12061;BMP180;6091;51.432;6.880;2023-06-22T03:24:15;101024.00;;;30.70
12061;BMP180;6091;51.432;6.880;2023-06-22T03:26:42;101026.00;;;30.70
12061;BMP180;6091;51.432;6.880;2023-06-22T03:29:09;101027.00;;;30.70
12061;BMP180;6091;51.432;6.880;2023-06-22T03:31:36;101021.00;;;30.70
12061;BMP180;6091;51.432;6.880;2023-06-22T03:34:03;101028.00;;;30.60
12061;BMP180;6091;51.432;6.880;2023-06-22T03:36:31;101025.00;;;30.60
12061;BMP180;6091;51.432;6.880;2023-06-22T03:38:58;101014.00;;;30.60
12061;BMP180;6091;51.432;6.880;2023-06-22T03:41:24;101023.00;;;30.60
12061;BMP180;6091;51.432;6.880;2023-06-22T03:43:52;101015.00;;;30.60
12061;BMP180;6091;51.432;6.880;2023-06-22T03:46:19;101007.00;;;30.60
12061;BMP180;6091;51.432;6.880;2023-06-22T03:48:47;101006.00;;;30.60
12061;BMP180;6091;51.432;6.880;2023-06-22T03:51:14;101005.00;;;30.60
12061;BMP180;6091;51.432;6.880;2023-06-22T03:53:41;100997.00;;;30.60
12061;BMP180;6091;51.432;6.880;2023-06-22T03:56:08;101001.00;;;30.60
12061;BMP180;6091;51.432;6.880;2023-06-22T03:58:35;100993.00;;;30.60
12061;BMP180;6091;51.432;6.880;2023-06-22T04:01:03;100994.00;;;30.60
12061;BMP180;6091;51.432;6.880;2023-06-22T04:03:30;100998.00;;;30.60
12061;BMP180;6091;51.432;6.880;2023-06-22T04:05:58;100998.00;;;30.60
12061;BMP180;6091;51.432;6.880;2023-06-22T04:08:25;100994.00;;;30.60
12061;BMP180;6091;51.432;6.880;2023-06-22T04:10:52;100993.00;;;30.60
12061;BMP180;6091;51.432;6.880;2023-06-22T04:13:19;101000.00;;;30.70
12061;BMP180;6091;51.432;6.880;2023-06-22T04:15:46;101000.00;;;30.70
12061;BMP180;6091;51.432;6.880;2023-06-22T04:18:13;101001.00;;;30.70
12061;BMP180;6091;51.432;6.880;2023-06-22T04:20:40;101001.00;;;30.70
12061;BMP180;6091;51.432;6.880;2023-06-22T04:23:07;101004.00;;;30.70
12061;BMP180;6091;51.432;6.880;2023-06-22T04:25:34;100999.00;;;30.70
12061;BMP180;6091;51.432;6.880;2023-06-22T04:28:01;101002.00;;;30.80
12061;BMP180;6091;51.432;6.880;2023-06-22T04:30:35;101004.00;;;30.80
12061;BMP180;6091;51.432;6.880;2023-06-22T04:33:10;101006.00;;;30.80
12061;BMP180;6091;51.432;6.880;2023-06-22T04:35:37;101008.00;;;30.80
12061;BMP180;6091;51.432;6.880;2023-06-22T04:38:07;101012.00;;;30.80
12061;BMP180;6091;51.432;6.880;2023-06-22T04:40:34;101014.00;;;30.80
12061;BMP180;6091;51.432;6.880;2023-06-22T04:43:02;101016.00;;;30.90
12061;BMP180;6091;51.432;6.880;2023-06-22T04:45:29;101024.00;;;30.90
12061;BMP180;6091;51.432;6.880;2023-06-22T04:47:56;101013.00;;;30.90
12061;BMP180;6091;51.432;6.880;2023-06-22T04:50:24;101004.00;;;30.90
12061;BMP180;6091;51.432;6.880;2023-06-22T04:52:51;101004.00;;;30.90
12061;BMP180;6091;51.432;6.880;2023-06-22T04:55:19;101010.00;;;30.90
12061;BMP180;6091;51.432;6.880;2023-06-22T04:57:48;101006.00;;;30.90
12061;BMP180;6091;51.432;6.880;2023-06-22T05:00:19;101005.00;;;30.90
12061;BMP180;6091;51.432;6.880;2023-06-22T05:02:50;100991.00;;;30.90
12061;BMP180;6091;51.432;6.880;2023-06-22T05:05:17;101001.00;;;30.90
12061;BMP180;6091;51.432;6.880;2023-06-22T05:07:46;101000.00;;;30.90
12061;BMP180;6091;51.432;6.880;2023-06-22T05:10:17;101000.00;;;30.90
12061;BMP180;6091;51.432;6.880;2023-06-22T05:12:45;100991.00;;;30.90
12061;BMP180;6091;51.432;6.880;2023-06-22T05:15:12;100991.00;;;30.90
12061;BMP180;6091;51.432;6.880;2023-06-22T05:17:39;100989.00;;;30.90
12061;BMP180;6091;51.432;6.880;2023-06-22T05:20:11;100993.00;;;30.90
12061;BMP180;6091;51.432;6.880;2023-06-22T05:22:40;101000.00;;;30.90
12061;BMP180;6091;51.432;6.880;2023-06-22T05:25:09;100999.00;;;30.90
12061;BMP180;6091;51.432;6.880;2023-06-22T05:27:38;101000.00;;;30.90
12061;BMP180;6091;51.432;6.880;2023-06-22T05:30:11;101012.00;;;30.90
12061;BMP180;6091;51.432;6.880;2023-06-22T05:32:38;101010.00;;;30.90
12061;BMP180;6091;51.432;6.880;2023-06-22T05:35:06;101013.00;;;30.90
12061;BMP180;6091;51.432;6.880;2023-06-22T05:37:33;101020.00;;;30.90
12061;BMP180;6091;51.432;6.880;2023-06-22T05:40:00;101021.00;;;30.90
12061;BMP180;6091;51.432;6.880;2023-06-22T05:42:27;101023.00;;;30.80
12061;BMP180;6091;51.432;6.880;2023-06-22T05:44:54;101022.00;;;30.80
12061;BMP180;6091;51.432;6.880;2023-06-22T05:47:21;101032.00;;;30.80
12061;BMP180;6091;51.432;6.880;2023-06-22T05:49:50;101037.00;;;30.80
12061;BMP180;6091;51.432;6.880;2023-06-22T05:52:19;101031.00;;;30.80
12061;BMP180;6091;51.432;6.880;2023-06-22T05:54:46;101041.00;;;30.80
12061;BMP180;6091;51.432;6.880;2023-06-22T05:57:13;101050.00;;;30.80
12061;BMP180;6091;51.432;6.880;2023-06-22T05:59:40;101050.00;;;30.80
12061;BMP180;6091;51.432;6.880;2023-06-22T06:02:08;101055.00;;;30.80
12061;BMP180;6091;51.432;6.880;2023-06-22T06:04:35;101051.00;;;30.80
12061;BMP180;6091;51.432;6.880;2023-06-22T06:07:02;101054.00;;;30.70
12061;BMP180;6091;51.432;6.880;2023-06-22T06:09:29;101038.00;;;30.70
12061;BMP180;6091;51.432;6.880;2023-06-22T06:11:56;101041.00;;;30.70
12061;BMP180;6091;51.432;6.880;2023-06-22T06:14:23;101030.00;;;30.70
12061;BMP180;6091;51.432;6.880;2023-06-22T06:16:50;101035.00;;;30.60
12061;BMP180;6091;51.432;6.880;2023-06-22T06:19:17;101033.00;;;30.60
12061;BMP180;6091;51.432;6.880;2023-06-22T06:21:44;101031.00;;;30.50
12061;BMP180;6091;51.432;6.880;2023-06-22T06:24:12;101029.00;;;30.50
12061;BMP180;6091;51.432;6.880;2023-06-22T06:26:39;101018.00;;;30.40
12061;BMP180;6091;51.432;6.880;2023-06-22T06:29:09;101014.00;;;30.40
12061;BMP180;6091;51.432;6.880;2023-06-22T06:31:36;101021.00;;;30.30
12061;BMP180;6091;51.432;6.880;2023-06-22T06:34:03;101020.00;;;30.20
12061;BMP180;6091;51.432;6.880;2023-06-22T06:36:30;101013.00;;;30.20
12061;BMP180;6091;51.432;6.880;2023-06-22T06:38:57;101018.00;;;30.20
12061;BMP180;6091;51.432;6.880;2023-06-22T06:41:24;101019.00;;;30.20
12061;BMP180;6091;51.432;6.880;2023-06-22T06:43:51;101017.00;;;30.20
12061;BMP180;6091;51.432;6.880;2023-06-22T06:46:19;101010.00;;;30.20
12061;BMP180;6091;51.432;6.880;2023-06-22T06:48:46;101017.00;;;30.10
12061;BMP180;6091;51.432;6.880;2023-06-22T06:51:13;101015.00;;;30.10
12061;BMP180;6091;51.432;6.880;2023-06-22T06:53:40;101014.00;;;30.20
12061;BMP180;6091;51.432;6.880;2023-06-22T06:56:07;101010.00;;;30.20
12061;BMP180;6091;51.432;6.880;2023-06-22T06:58:41;101002.00;;;30.20
12061;BMP180;6091;51.432;6.880;2023-06-22T07:01:09;101007.00;;;30.10
12061;BMP180;6091;51.432;6.880;2023-06-22T07:03:36;101004.00;;;30.10
12061;BMP180;6091;51.432;6.880;2023-06-22T07:06:03;101000.00;;;30.00
12061;BMP180;6091;51.432;6.880;2023-06-22T07:08:30;100991.00;;;29.90
12061;BMP180;6091;51.432;6.880;2023-06-22T07:10:57;100996.00;;;29.80
12061;BMP180;6091;51.432;6.880;2023-06-22T07:13:24;100989.00;;;29.80
12061;BMP180;6091;51.432;6.880;2023-06-22T07:15:51;100994.00;;;29.80
12061;BMP180;6091;51.432;6.880;2023-06-22T07:18:18;100990.00;;;29.70
12061;BMP180;6091;51.432;6.880;2023-06-22T07:20:45;100990.00;;;29.70
12061;BMP180;6091;51.432;6.880;2023-06-22T07:23:12;100988.00;;;29.70
12061;BMP180;6091;51.432;6.880;2023-06-22T07:25:39;100993.00;;;29.70
12061;BMP180;6091;51.432;6.880;2023-06-22T07:28:07;100991.00;;;29.70
12061;BMP180;6091;51.432;6.880;2023-06-22T07:30:35;100985.00;;;29.70
12061;BMP180;6091;51.432;6.880;2023-06-22T07:33:02;100993.00;;;29.70
12061;BMP180;6091;51.432;6.880;2023-06-22T07:35:31;100992.00;;;29.70
12061;BMP180;6091;51.432;6.880;2023-06-22T07:37:58;100979.00;;;29.60
12061;BMP180;6091;51.432;6.880;2023-06-22T07:40:30;100981.00;;;29.50
12061;BMP180;6091;51.432;6.880;2023-06-22T07:42:57;100989.00;;;29.50
12061;BMP180;6091;51.432;6.880;2023-06-22T07:45:25;100978.00;;;29.50
12061;BMP180;6091;51.432;6.880;2023-06-22T07:47:52;100981.00;;;29.50
12061;BMP180;6091;51.432;6.880;2023-06-22T07:50:19;100974.00;;;29.60
12061;BMP180;6091;51.432;6.880;2023-06-22T07:52:47;100972.00;;;29.60
12061;BMP180;6091;51.432;6.880;2023-06-22T07:55:15;100974.00;;;29.60
12061;BMP180;6091;51.432;6.880;2023-06-22T07:57:42;100969.00;;;29.60
12061;BMP180;6091;51.432;6.880;2023-06-22T08:00:12;100957.00;;;29.70
12061;BMP180;6091;51.432;6.880;2023-06-22T08:02:46;100959.00;;;29.70
12061;BMP180;6091;51.432;6.880;2023-06-22T08:05:15;100945.00;;;29.70
12061;BMP180;6091;51.432;6.880;2023-06-22T08:07:45;100935.00;;;29.70
12061;BMP180;6091;51.432;6.880;2023-06-22T08:10:15;100931.00;;;29.70
12061;BMP180;6091;51.432;6.880;2023-06-22T08:12:43;100929.00;;;29.70
12061;BMP180;6091;51.432;6.880;2023-06-22T08:15:10;100921.00;;;29.70
12061;BMP180;6091;51.432;6.880;2023-06-22T08:17:38;100908.00;;;29.70
12061;BMP180;6091;51.432;6.880;2023-06-22T08:20:07;100892.00;;;29.70
12061;BMP180;6091;51.432;6.880;2023-06-22T08:22:41;100882.00;;;29.70
12061;BMP180;6091;51.432;6.880;2023-06-22T08:25:10;100876.00;;;29.80
12061;BMP180;6091;51.432;6.880;2023-06-22T08:27:37;100877.00;;;29.80
12061;BMP180;6091;51.432;6.880;2023-06-22T08:30:06;100873.00;;;29.80
12061;BMP180;6091;51.432;6.880;2023-06-22T08:32:34;100878.00;;;29.80
12061;BMP180;6091;51.432;6.880;2023-06-22T08:35:01;100877.00;;;29.80
12061;BMP180;6091;51.432;6.880;2023-06-22T08:37:28;100881.00;;;29.80
12061;BMP180;6091;51.432;6.880;2023-06-22T08:40:05;100882.00;;;29.80
12061;BMP180;6091;51.432;6.880;2023-06-22T08:42:37;100876.00;;;29.90
12061;BMP180;6091;51.432;6.880;2023-06-22T08:45:06;100883.00;;;29.80
12061;BMP180;6091;51.432;6.880;2023-06-22T08:47:33;100881.00;;;29.90
12061;BMP180;6091;51.432;6.880;2023-06-22T08:50:00;100886.00;;;29.90
12061;BMP180;6091;51.432;6.880;2023-06-22T08:52:30;100885.00;;;29.90
12061;BMP180;6091;51.432;6.880;2023-06-22T08:54:57;100886.00;;;29.90
12061;BMP180;6091;51.432;6.880;2023-06-22T08:57:28;100879.00;;;29.90
12061;BMP180;6091;51.432;6.880;2023-06-22T08:59:55;100869.00;;;29.90
12061;BMP180;6091;51.432;6.880;2023-06-22T09:02:28;100862.00;;;29.90
12061;BMP180;6091;51.432;6.880;2023-06-22T09:04:58;100861.00;;;29.90
12061;BMP180;6091;51.432;6.880;2023-06-22T09:07:26;100863.00;;;29.90
12061;BMP180;6091;51.432;6.880;2023-06-22T09:09:53;100871.00;;;29.90
12061;BMP180;6091;51.432;6.880;2023-06-22T09:12:20;100865.00;;;30.00
12061;BMP180;6091;51.432;6.880;2023-06-22T09:14:51;100862.00;;;30.00
12061;BMP180;6091;51.432;6.880;2023-06-22T09:17:19;100870.00;;;30.00
12061;BMP180;6091;51.432;6.880;2023-06-22T09:19:46;100856.00;;;30.00
12061;BMP180;6091;51.432;6.880;2023-06-22T09:22:14;100856.00;;;30.00
12061;BMP180;6091;51.432;6.880;2023-06-22T09:24:41;100856.00;;;30.00
12061;BMP180;6091;51.432;6.880;2023-06-22T09:27:08;100871.00;;;30.10
12061;BMP180;6091;51.432;6.880;2023-06-22T09:29:36;100871.00;;;30.10
12061;BMP180;6091;51.432;6.880;2023-06-22T09:32:03;100863.00;;;30.10
12061;BMP180;6091;51.432;6.880;2023-06-22T09:34:30;100856.00;;;30.10
12061;BMP180;6091;51.432;6.880;2023-06-22T09:36:58;100852.00;;;30.10
12061;BMP180;6091;51.432;6.880;2023-06-22T09:39:27;100857.00;;;30.20
12061;BMP180;6091;51.432;6.880;2023-06-22T09:41:54;100847.00;;;30.20
12061;BMP180;6091;51.432;6.880;2023-06-22T09:44:21;100848.00;;;30.10
12061;BMP180;6091;51.432;6.880;2023-06-22T09:46:48;100844.00;;;30.10
12061;BMP180;6091;51.432;6.880;2023-06-22T09:49:15;100844.00;;;30.10
12061;BMP180;6091;51.432;6.880;2023-06-22T09:51:42;100838.00;;;30.10
12061;BMP180;6091;51.432;6.880;2023-06-22T09:54:09;100838.00;;;30.00
12061;BMP180;6091;51.432;6.880;2023-06-22T09:56:36;100836.00;;;30.10
12061;BMP180;6091;51.432;6.880;2023-06-22T09:59:04;100832.00;;;30.10
12061;BMP180;6091;51.432;6.880;2023-06-22T10:01:44;100826.00;;;30.10
12061;BMP180;6091;51.432;6.880;2023-06-22T10:04:11;100821.00;;;30.10
12061;BMP180;6091;51.432;6.880;2023-06-22T10:06:39;100819.00;;;30.10
12061;BMP180;6091;51.432;6.880;2023-06-22T10:09:08;100813.00;;;30.10
12061;BMP180;6091;51.432;6.880;2023-06-22T10:11:35;100825.00;;;30.10
12061;BMP180;6091;51.432;6.880;2023-06-22T10:14:03;100819.00;;;30.10
12061;BMP180;6091;51.432;6.880;2023-06-22T10:16:31;100818.00;;;30.10
12061;BMP180;6091;51.432;6.880;2023-06-22T10:18:59;100809.00;;;30.10
12061;BMP180;6091;51.432;6.880;2023-06-22T10:21:26;100811.00;;;30.10
12061;BMP180;6091;51.432;6.880;2023-06-22T10:23:55;100815.00;;;30.10
12061;BMP180;6091;51.432;6.880;2023-06-22T10:26:22;100806.00;;;30.20
12061;BMP180;6091;51.432;6.880;2023-06-22T10:28:50;100801.00;;;30.20
12061;BMP180;6091;51.432;6.880;2023-06-22T10:31:33;100791.00;;;30.20
12061;BMP180;6091;51.432;6.880;2023-06-22T10:34:00;100798.00;;;30.20
12061;BMP180;6091;51.432;6.880;2023-06-22T10:36:27;100794.00;;;30.20
12061;BMP180;6091;51.432;6.880;2023-06-22T10:38:54;100793.00;;;30.20
12061;BMP180;6091;51.432;6.880;2023-06-22T10:41:22;100799.00;;;30.20
12061;BMP180;6091;51.432;6.880;2023-06-22T10:43:49;100809.00;;;30.30
12061;BMP180;6091;51.432;6.880;2023-06-22T10:46:16;100808.00;;;30.30
12061;BMP180;6091;51.432;6.880;2023-06-22T10:48:43;100808.00;;;30.30
12061;BMP180;6091;51.432;6.880;2023-06-22T10:51:10;100811.00;;;30.30
12061;BMP180;6091;51.432;6.880;2023-06-22T10:53:37;100813.00;;;30.30
12061;BMP180;6091;51.432;6.880;2023-06-22T10:56:04;100826.00;;;30.30
12061;BMP180;6091;51.432;6.880;2023-06-22T10:58:32;100834.00;;;30.30
12061;BMP180;6091;51.432;6.880;2023-06-22T11:00:59;100844.00;;;30.30
12061;BMP180;6091;51.432;6.880;2023-06-22T11:03:26;100844.00;;;30.30
12061;BMP180;6091;51.432;6.880;2023-06-22T11:05:53;100844.00;;;30.30
12061;BMP180;6091;51.432;6.880;2023-06-22T11:08:20;100843.00;;;30.30
12061;BMP180;6091;51.432;6.880;2023-06-22T11:10:47;100844.00;;;30.30
12061;BMP180;6091;51.432;6.880;2023-06-22T11:13:14;100843.00;;;30.40
12061;BMP180;6091;51.432;6.880;2023-06-22T11:15:41;100833.00;;;30.40
12061;BMP180;6091;51.432;6.880;2023-06-22T11:18:08;100828.00;;;30.40
12061;BMP180;6091;51.432;6.880;2023-06-22T11:20:35;100823.00;;;30.50
12061;BMP180;6091;51.432;6.880;2023-06-22T11:23:05;100835.00;;;30.50
12061;BMP180;6091;51.432;6.880;2023-06-22T11:25:35;100847.00;;;30.50
12061;BMP180;6091;51.432;6.880;2023-06-22T11:28:05;100849.00;;;30.60
12061;BMP180;6091;51.432;6.880;2023-06-22T11:30:32;100839.00;;;30.60
12061;BMP180;6091;51.432;6.880;2023-06-22T11:32:59;100844.00;;;30.60
12061;BMP180;6091;51.432;6.880;2023-06-22T11:35:27;100844.00;;;30.60
12061;BMP180;6091;51.432;6.880;2023-06-22T11:37:54;100848.00;;;30.60
12061;BMP180;6091;51.432;6.880;2023-06-22T11:40:22;100857.00;;;30.70
12061;BMP180;6091;51.432;6.880;2023-06-22T11:42:49;100856.00;;;30.70
12061;BMP180;6091;51.432;6.880;2023-06-22T11:45:16;100847.00;;;30.70
12061;BMP180;6091;51.432;6.880;2023-06-22T11:47:47;100848.00;;;30.80
12061;BMP180;6091;51.432;6.880;2023-06-22T11:50:14;100835.00;;;30.80
12061;BMP180;6091;51.432;6.880;2023-06-22T11:52:41;100822.00;;;30.80
12061;BMP180;6091;51.432;6.880;2023-06-22T11:55:10;100821.00;;;30.80
12061;BMP180;6091;51.432;6.880;2023-06-22T11:57:39;100807.00;;;30.80
12061;BMP180;6091;51.432;6.880;2023-06-22T12:00:19;100784.00;;;30.80
12061;BMP180;6091;51.432;6.880;2023-06-22T12:02:47;100758.00;;;30.80
12061;BMP180;6091;51.432;6.880;2023-06-22T12:05:14;100738.00;;;30.80
12061;BMP180;6091;51.432;6.880;2023-06-22T12:07:41;100719.00;;;30.90
12061;BMP180;6091;51.432;6.880;2023-06-22T12:10:09;100702.00;;;30.90
12061;BMP180;6091;51.432;6.880;2023-06-22T12:12:36;100697.00;;;30.90
12061;BMP180;6091;51.432;6.880;2023-06-22T12:15:04;100704.00;;;30.90
12061;BMP180;6091;51.432;6.880;2023-06-22T12:17:33;100705.00;;;30.90
12061;BMP180;6091;51.432;6.880;2023-06-22T12:20:00;100699.00;;;30.90
12061;BMP180;6091;51.432;6.880;2023-06-22T12:22:28;100692.00;;;30.90
12061;BMP180;6091;51.432;6.880;2023-06-22T12:24:55;100698.00;;;30.90
12061;BMP180;6091;51.432;6.880;2023-06-22T12:27:22;100710.00;;;30.90
12061;BMP180;6091;51.432;6.880;2023-06-22T12:29:49;100707.00;;;30.90
12061;BMP180;6091;51.432;6.880;2023-06-22T12:32:16;100705.00;;;30.80
12061;BMP180;6091;51.432;6.880;2023-06-22T12:34:44;100695.00;;;30.80
12061;BMP180;6091;51.432;6.880;2023-06-22T12:37:11;100685.00;;;30.80
12061;BMP180;6091;51.432;6.880;2023-06-22T12:39:41;100687.00;;;30.90
12061;BMP180;6091;51.432;6.880;2023-06-22T12:42:08;100688.00;;;30.90
12061;BMP180;6091;51.432;6.880;2023-06-22T12:44:38;100685.00;;;30.90
12061;BMP180;6091;51.432;6.880;2023-06-22T12:47:06;100677.00;;;30.90
12061;BMP180;6091;51.432;6.880;2023-06-22T12:49:35;100670.00;;;30.90
12061;BMP180;6091;51.432;6.880;2023-06-22T12:52:08;100658.00;;;30.90
12061;BMP180;6091;51.432;6.880;2023-06-22T12:54:35;100661.00;;;30.90
12061;BMP180;6091;51.432;6.880;2023-06-22T12:57:19;100653.00;;;30.90
12061;BMP180;6091;51.432;6.880;2023-06-22T12:59:46;100649.00;;;30.90
12061;BMP180;6091;51.432;6.880;2023-06-22T13:02:13;100652.00;;;31.00
12061;BMP180;6091;51.432;6.880;2023-06-22T13:04:40;100655.00;;;31.00
12061;BMP180;6091;51.432;6.880;2023-06-22T13:07:08;100657.00;;;31.00
12061;BMP180;6091;51.432;6.880;2023-06-22T13:09:48;100648.00;;;30.90
12061;BMP180;6091;51.432;6.880;2023-06-22T13:12:22;100638.00;;;31.00
12061;BMP180;6091;51.432;6.880;2023-06-22T13:14:49;100634.00;;;30.90
12061;BMP180;6091;51.432;6.880;2023-06-22T13:17:17;100639.00;;;30.90
12061;BMP180;6091;51.432;6.880;2023-06-22T13:19:44;100644.00;;;30.90
12061;BMP180;6091;51.432;6.880;2023-06-22T13:22:32;100653.00;;;30.90
12061;BMP180;6091;51.432;6.880;2023-06-22T13:25:00;100655.00;;;30.90
12061;BMP180;6091;51.432;6.880;2023-06-22T13:27:28;100649.00;;;31.00
12061;BMP180;6091;51.432;6.880;2023-06-22T13:29:55;100650.00;;;31.00
12061;BMP180;6091;51.432;6.880;2023-06-22T13:32:22;100639.00;;;31.00
12061;BMP180;6091;51.432;6.880;2023-06-22T13:34:51;100629.00;;;31.00
12061;BMP180;6091;51.432;6.880;2023-06-22T13:37:18;100638.00;;;31.00
12061;BMP180;6091;51.432;6.880;2023-06-22T13:39:46;100636.00;;;31.00
12061;BMP180;6091;51.432;6.880;2023-06-22T13:42:13;100633.00;;;31.00
12061;BMP180;6091;51.432;6.880;2023-06-22T13:44:40;100609.00;;;31.10
12061;BMP180;6091;51.432;6.880;2023-06-22T13:47:07;100613.00;;;31.10
12061;BMP180;6091;51.432;6.880;2023-06-22T13:49:34;100610.00;;;31.20
12061;BMP180;6091;51.432;6.880;2023-06-22T13:52:01;100608.00;;;31.20
12061;BMP180;6091;51.432;6.880;2023-06-22T13:54:30;100613.00;;;31.20
12061;BMP180;6091;51.432;6.880;2023-06-22T13:56:59;100602.00;;;31.20
12061;BMP180;6091;51.432;6.880;2023-06-22T13:59:26;100598.00;;;31.20
12061;BMP180;6091;51.432;6.880;2023-06-22T14:01:54;100600.00;;;31.20
12061;BMP180;6091;51.432;6.880;2023-06-22T14:04:24;100597.00;;;31.20
12061;BMP180;6091;51.432;6.880;2023-06-22T14:06:52;100595.00;;;31.20
12061;BMP180;6091;51.432;6.880;2023-06-22T14:09:23;100581.00;;;31.20
12061;BMP180;6091;51.432;6.880;2023-06-22T14:11:50;100576.00;;;31.20
12061;BMP180;6091;51.432;6.880;2023-06-22T14:14:17;100578.00;;;31.20
12061;BMP180;6091;51.432;6.880;2023-06-22T14:16:44;100574.00;;;31.20
12061;BMP180;6091;51.432;6.880;2023-06-22T14:19:11;100571.00;;;31.10